Time;durP1;ratioP1;P1;durP2;ratioP2;P2;SDS_P1;SDS_P2;PMS_P1;PMS_P2;Temp;Humidity;BMP_temperature;BMP_pressure;BME280_temperature;BME280_humidity;BME280_pressure;Samples;Min_cycle;Max_cycle;Signal;HPM_P1;HPM_P2
2022/08/28 00:00:17;;;;;;;30.62;24.43;;;;;;;20.82;86.66;100169.73;1744581;80;21079;-78
2022/08/28 00:02:46;;;;;;;26.00;22.87;;;;;;;20.77;86.28;100171.92;1744350;80;20991;-79
2022/08/28 00:05:16;;;;;;;27.80;24.30;;;;;;;20.66;85.95;100171.48;1757699;80;21121;-79
2022/08/28 00:07:43;;;;;;;;;;;;;;;20.60;86.19;100172.00;1755344;80;21094;-79
2022/08/28 00:10:15;;;;;;;28.67;23.30;;;;;;;20.54;86.54;100169.01;1755665;80;20189;-79
2022/08/28 00:12:44;;;;;;;26.05;23.25;;;;;;;20.48;86.42;100171.66;1748277;80;21053;-78
2022/08/28 00:15:16;;;;;;;28.73;23.42;;;;;;;20.42;86.41;100170.31;1756296;80;21007;-79
2022/08/28 00:17:43;;;;;;;28.10;24.18;;;;;;;20.37;86.46;100169.00;1755793;80;21102;-79
2022/08/28 00:20:13;;;;;;;27.35;23.57;;;;;;;20.32;86.86;100165.41;1744741;80;21572;-79
2022/08/28 00:22:40;;;;;;;;;;;;;;;20.31;86.86;100162.86;1746807;80;21023;-79
2022/08/28 00:25:11;;;;;;;26.42;22.00;;;;;;;20.31;87.68;100159.70;1756653;80;20137;-79
2022/08/28 00:27:54;;;;;;;25.65;22.52;;;;;;;20.30;87.27;100159.84;1744372;80;21031;-78
2022/08/28 00:30:29;;;;;;;26.95;24.05;;;;;;;20.23;87.00;100159.02;1744265;80;21142;-79
2022/08/28 00:33:04;;;;;;;27.32;24.40;;;;;;;20.15;87.12;100163.27;1764391;80;21042;-79
2022/08/28 00:35:35;;;;;;;29.45;25.25;;;;;;;20.14;87.66;100162.41;1744330;80;21602;-79
2022/08/28 00:38:03;;;;;;;27.80;24.82;;;;;;;20.15;88.16;100164.61;1739332;81;21545;-79
2022/08/28 00:40:30;;;;;;;29.80;25.43;;;;;;;20.17;88.50;100161.31;1762310;81;21019;-79
2022/08/28 00:42:59;;;;;;;27.80;24.82;;;;;;;20.19;88.82;100166.88;1739355;81;21493;-79
2022/08/28 00:45:27;;;;;;;29.60;24.07;;;;;;;20.17;88.31;100166.14;1739615;81;21102;-79
2022/08/28 00:47:54;;;;;;;26.45;23.57;;;;;;;20.10;88.08;100170.78;1742587;81;21081;-78
2022/08/28 00:50:24;;;;;;;28.07;23.83;;;;;;;20.04;88.02;100172.12;1741743;80;21023;-79
2022/08/28 00:52:57;;;;;;;28.98;22.82;;;;;;;20.01;88.35;100168.38;1743109;80;21062;-79
2022/08/28 00:55:27;;;;;;;27.58;23.18;;;;;;;20.00;88.79;100167.99;1743752;81;21110;-79
2022/08/28 00:57:59;;;;;;;;;;;;;;;19.99;88.85;100167.64;1742869;81;20972;-79
2022/08/28 01:00:34;;;;;;;25.37;22.37;;;;;;;19.95;88.89;100170.17;1762212;81;20143;-79
2022/08/28 01:03:02;;;;;;;25.00;21.73;;;;;;;19.90;88.71;100164.37;1744091;81;21503;-79
2022/08/28 01:05:29;;;;;;;25.10;21.48;;;;;;;19.85;88.59;100165.25;1733524;82;21008;-79
2022/08/28 01:07:58;;;;;;;27.55;22.40;;;;;;;19.81;88.76;100166.82;1766985;80;21554;-79
2022/08/28 01:10:29;;;;;;;28.30;21.85;;;;;;;19.78;88.83;100167.53;1771764;80;21039;-79
2022/08/28 01:12:57;;;;;;;24.87;22.13;;;;;;;19.76;88.87;100164.13;1762205;81;20972;-79
2022/08/28 01:15:32;;;;;;;29.77;22.55;;;;;;;19.73;89.05;100165.25;1771653;81;21076;-79
2022/08/28 01:18:05;;;;;;;24.52;21.45;;;;;;;19.72;89.19;100162.70;1762224;81;21024;-78
2022/08/28 01:20:36;;;;;;;26.93;22.10;;;;;;;19.72;89.55;100163.54;1741781;80;21063;-79
2022/08/28 01:23:26;;;;;;;29.35;22.73;;;;;;;19.70;89.50;100158.81;1730672;81;21038;-79
2022/08/28 01:25:54;;;;;;;26.17;21.37;;;;;;;19.71;89.89;100160.53;1732732;81;21023;-79
2022/08/28 01:28:21;;;;;;;23.85;20.37;;;;;;;19.72;89.67;100162.21;1739200;81;21020;-79
2022/08/28 01:30:48;;;;;;;25.13;20.73;;;;;;;19.69;89.41;100164.27;1740124;81;21000;-79
2022/08/28 01:33:16;;;;;;;24.77;21.75;;;;;;;19.63;89.25;100155.42;1760750;80;21989;-79
2022/08/28 01:35:47;;;;;;;27.45;22.00;;;;;;;19.57;89.41;100154.09;1739421;81;20997;-79
2022/08/28 01:38:16;;;;;;;23.95;21.45;;;;;;;19.55;89.65;100157.35;1726696;81;20983;-79
2022/08/28 01:40:46;;;;;;;26.05;23.20;;;;;;;19.52;89.31;100160.25;1753218;81;21103;-79
2022/08/28 01:43:18;;;;;;;25.95;21.95;;;;;;;19.50;89.71;100162.17;1745312;81;21032;-79
2022/08/28 01:45:51;;;;;;;25.62;20.12;;;;;;;19.46;89.45;100166.05;1741508;81;22019;-79
2022/08/28 01:48:21;;;;;;;26.95;20.37;;;;;;;19.45;89.92;100167.00;1739282;81;21023;-79
2022/08/28 01:50:49;;;;;;;22.30;19.57;;;;;;;19.44;89.53;100167.98;1739900;81;21035;-79
2022/08/28 01:53:22;;;;;;;22.48;20.08;;;;;;;19.37;89.59;100171.12;1739125;81;21031;-79
2022/08/28 01:55:50;;;;;;;24.60;20.95;;;;;;;19.36;89.89;100170.73;1739530;81;20995;-79
2022/08/28 01:58:17;;;;;;;24.70;20.65;;;;;;;19.35;90.07;100174.86;1739235;81;21123;-79
2022/08/28 02:00:44;;;;;;;23.30;20.12;;;;;;;19.34;90.03;100178.00;1739455;81;21023;-79
2022/08/28 02:03:12;;;;;;;23.20;20.72;;;;;;;19.33;90.23;100172.30;1739321;81;20960;-79
2022/08/28 02:05:39;;;;;;;33.42;22.67;;;;;;;19.36;90.79;100168.56;1739479;81;21016;-79
2022/08/28 02:08:07;;;;;;;27.65;23.85;;;;;;;19.39;91.00;100165.66;1743587;81;22069;-78
2022/08/28 02:10:38;;;;;;;25.08;22.45;;;;;;;19.44;91.51;100160.00;1744481;80;21017;-78
2022/08/28 02:13:06;;;;;;;35.05;27.85;;;;;;;19.50;91.57;100159.03;1758482;81;21003;-79
2022/08/28 02:15:36;;;;;;;28.42;25.30;;;;;;;19.53;92.13;100158.78;1743583;81;21031;-79
2022/08/28 02:18:05;;;;;;;33.65;27.32;;;;;;;19.60;92.49;100160.50;1739262;81;21460;-79
2022/08/28 02:20:33;;;;;;;35.07;27.47;;;;;;;19.65;92.61;100160.98;1719292;81;21049;-79
2022/08/28 02:23:01;;;;;;;33.70;28.10;;;;;;;19.69;92.79;100155.81;1739341;81;21124;-79
2022/08/28 02:25:28;;;;;;;33.08;28.20;;;;;;;19.76;92.97;100156.16;1739391;81;20984;-79
2022/08/28 02:27:55;;;;;;;35.48;28.98;;;;;;;19.79;93.16;100150.13;1730451;81;21045;-79
2022/08/28 02:30:23;;;;;;;31.70;28.02;;;;;;;19.82;93.07;100151.70;1734055;81;21092;-79
2022/08/28 02:32:50;;;;;;;37.13;29.60;;;;;;;19.87;93.20;100149.98;1744454;80;21043;-79
2022/08/28 02:35:19;;;;;;;37.05;29.18;;;;;;;19.88;93.02;100155.20;1740206;81;21937;-79
2022/08/28 02:37:48;;;;;;;34.23;29.82;;;;;;;19.87;93.10;100158.84;1743001;80;28166;-79
2022/08/28 02:40:20;;;;;;;39.78;30.02;;;;;;;19.89;93.25;100157.37;1744393;80;20985;-79
2022/08/28 02:42:47;;;;;;;37.15;29.50;;;;;;;19.90;93.29;100151.07;1754764;80;21057;-79
2022/08/28 02:45:14;;;;;;;36.83;29.30;;;;;;;19.89;93.41;100142.25;1755504;80;21088;-79
2022/08/28 02:47:44;;;;;;;38.80;30.45;;;;;;;19.91;93.42;100139.48;1750864;80;22348;-79
2022/08/28 02:50:15;;;;;;;35.73;30.35;;;;;;;19.91;93.52;100144.31;1744257;80;28816;-79
2022/08/28 02:52:42;;;;;;;36.53;30.23;;;;;;;19.92;93.70;100142.49;1767057;80;20976;-79
2022/08/28 02:55:13;;;;;;;35.17;28.75;;;;;;;19.95;93.92;100143.57;1744228;80;21477;-79
2022/08/28 02:57:41;;;;;;;38.83;29.87;;;;;;;19.97;93.85;100146.96;1744365;80;21123;-79
2022/08/28 03:00:13;;;;;;;34.48;28.35;;;;;;;19.96;93.79;100146.13;1745586;80;21928;-79
2022/08/28 03:02:41;;;;;;;36.98;29.90;;;;;;;19.97;94.02;100150.95;1744260;80;21036;-79
2022/08/28 03:05:09;;;;;;;35.58;28.70;;;;;;;19.99;94.06;100153.85;1767342;80;21047;-79
2022/08/28 03:07:37;;;;;;;37.03;29.02;;;;;;;20.03;94.40;100151.30;1744273;80;21044;-79
2022/08/28 03:10:06;;;;;;;39.60;29.80;;;;;;;20.06;94.37;100162.17;1747765;80;20998;-79
2022/08/28 03:12:34;;;;;;;35.25;28.40;;;;;;;20.10;94.43;100160.14;1763059;80;21110;-79
2022/08/28 03:15:02;;;;;;;38.85;29.23;;;;;;;20.12;94.47;100165.70;1755700;80;20984;-79
2022/08/28 03:17:29;;;;;;;36.40;28.70;;;;;;;20.14;94.58;100162.89;1753876;80;21527;-79
2022/08/28 03:19:56;;;;;;;34.65;26.93;;;;;;;20.18;94.54;100167.02;1740714;80;20992;-79
2022/08/28 03:25:11;;;;;;;32.17;27.35;;;;;;;20.22;94.73;100164.45;1744578;80;21927;-79
2022/08/28 03:27:38;;;;;;;36.40;27.90;;;;;;;20.25;94.75;100157.05;1740868;79;20976;-79
2022/08/28 03:30:07;;;;;;;35.68;28.30;;;;;;;20.29;94.79;100152.34;1744469;80;21483;-79
2022/08/28 03:32:35;;;;;;;36.05;27.73;;;;;;;20.32;94.80;100152.59;1759280;80;21669;-79
2022/08/28 03:35:02;;;;;;;38.48;28.87;;;;;;;20.34;94.94;100147.50;1761341;80;20994;-79
2022/08/28 03:37:30;;;;;;;37.78;27.48;;;;;;;20.38;94.93;100146.27;1762845;80;21119;-79
2022/08/28 03:39:57;;;;;;;38.38;29.25;;;;;;;20.40;94.91;100143.48;1768407;81;21098;-79
2022/08/28 03:42:24;;;;;;;34.05;28.35;;;;;;;20.40;94.90;100139.50;1748309;81;21457;-79
2022/08/28 03:44:53;;;;;;;33.60;27.00;;;;;;;20.41;94.99;100139.35;1739189;81;21030;-79
2022/08/28 03:47:21;;;;;;;36.23;28.60;;;;;;;20.44;95.10;100138.26;1739365;81;21047;-79
2022/08/28 03:49:58;;;;;;;33.95;27.75;;;;;;;20.45;95.02;100141.27;1739370;81;21125;-81
2022/08/28 03:52:26;;;;;;;35.38;28.32;;;;;;;20.45;95.00;100147.92;1739301;81;21059;-79
2022/08/28 03:54:53;;;;;;;35.65;27.67;;;;;;;20.48;95.08;100156.52;1745476;81;21107;-79
2022/08/28 03:57:22;;;;;;;40.65;29.77;;;;;;;20.49;95.12;100154.70;1764298;81;21093;-79
2022/08/28 03:59:52;;;;;;;38.23;29.25;;;;;;;20.51;95.12;100152.77;1759751;81;21079;-79
2022/08/28 04:02:20;;;;;;;38.15;29.72;;;;;;;20.52;95.10;100152.27;1742077;80;22138;-79
2022/08/28 04:04:49;;;;;;;37.58;29.20;;;;;;;20.52;94.99;100158.93;1744632;80;21047;-79
2022/08/28 04:07:18;;;;;;;41.88;30.23;;;;;;;20.50;95.04;100169.69;1739615;81;21567;-79
2022/08/28 04:09:46;;;;;;;39.58;30.17;;;;;;;20.50;95.22;100172.36;1739685;81;21050;-79
2022/08/28 04:12:14;;;;;;;36.83;29.35;;;;;;;20.52;95.25;100177.57;1740639;80;21046;-79
2022/08/28 04:14:41;;;;;;;39.33;27.17;;;;;;;20.52;95.28;100181.06;1755136;80;21525;-79
2022/08/28 04:17:08;;;;;;;36.25;28.40;;;;;;;20.53;95.27;100183.24;1742316;81;21579;-79
2022/08/28 04:19:35;;;;;;;37.85;30.32;;;;;;;20.52;95.29;100185.06;1767320;80;21583;-79
2022/08/28 04:22:03;;;;;;;36.73;29.40;;;;;;;20.54;95.42;100187.16;1770319;81;21118;-79
2022/08/28 04:24:30;;;;;;;37.90;29.23;;;;;;;20.53;95.18;100188.11;1739319;81;21059;-79
2022/08/28 04:26:57;;;;;;;39.63;30.00;;;;;;;20.51;95.20;100186.05;1755614;81;21119;-79
2022/08/28 04:29:25;;;;;;;40.25;29.85;;;;;;;20.50;95.32;100191.83;1769599;80;20994;-79
2022/08/28 04:31:52;;;;;;;42.55;29.87;;;;;;;20.48;95.36;100191.14;1768814;80;21054;-79
2022/08/28 04:34:19;;;;;;;35.60;28.20;;;;;;;20.49;95.55;100194.14;1747301;81;20973;-79
2022/08/28 04:36:48;;;;;;;39.10;29.42;;;;;;;20.50;95.47;100197.64;1768276;80;21052;-79
2022/08/28 04:39:15;;;;;;;38.95;27.60;;;;;;;20.51;95.62;100194.03;1750296;80;21118;-79
2022/08/28 04:41:42;;;;;;;42.35;30.12;;;;;;;20.54;95.74;100184.98;1751732;80;21037;-79
2022/08/28 04:44:09;;;;;;;40.33;29.52;;;;;;;20.54;95.73;100185.83;1748686;80;21038;-79
2022/08/28 04:46:37;;;;;;;43.68;29.85;;;;;;;20.55;95.80;100188.83;1750309;80;20990;-79
2022/08/28 04:49:04;;;;;;;39.03;28.92;;;;;;;20.56;95.78;100189.67;1750063;80;20991;-79
2022/08/28 04:51:32;;;;;;;39.85;29.18;;;;;;;20.57;95.82;100191.39;1744305;80;21866;-79
2022/08/28 04:54:02;;;;;;;40.65;29.55;;;;;;;20.57;95.94;100184.23;1744253;80;20917;-79
2022/08/28 04:56:29;;;;;;;41.83;30.40;;;;;;;20.58;95.92;100188.58;1763275;80;21460;-79
2022/08/28 04:58:56;;;;;;;43.35;29.85;;;;;;;20.58;96.00;100187.25;1759918;80;20976;-79
2022/08/28 05:01:26;;;;;;;38.28;29.37;;;;;;;20.58;95.96;100191.23;1756344;80;21093;-79
2022/08/28 05:03:58;;;;;;;45.95;30.82;;;;;;;20.56;96.09;100186.52;1744652;80;22120;-79
2022/08/28 05:06:27;;;;;;;44.40;29.65;;;;;;;20.60;96.18;100189.80;1744193;80;21007;-79
2022/08/28 05:09:00;;;;;;;41.60;30.20;;;;;;;20.61;96.29;100196.31;1744618;80;21525;-79
2022/08/28 05:11:30;;;;;;;46.28;30.10;;;;;;;20.64;96.31;100204.53;1769413;80;20999;-79
2022/08/28 05:13:57;;;;;;;41.85;30.12;;;;;;;20.64;96.24;100203.20;1752109;80;21084;-79
2022/08/28 05:16:24;;;;;;;40.92;29.57;;;;;;;20.64;96.20;100200.05;1752707;80;21422;-79
2022/08/28 05:18:51;;;;;;;36.48;27.95;;;;;;;20.64;96.33;100199.21;1748372;80;21027;-79
2022/08/28 05:21:21;;;;;;;40.33;30.48;;;;;;;20.64;96.31;100201.38;1762768;80;20996;-79
2022/08/28 05:23:52;;;;;;;42.65;31.62;;;;;;;20.65;96.46;100200.43;1737384;80;21029;-84
2022/08/28 05:26:20;;;;;;;43.45;31.60;;;;;;;20.66;96.33;100203.93;1749024;79;21020;-80
2022/08/28 05:28:47;;;;;;;37.20;29.00;;;;;;;20.64;96.34;100205.87;1759771;79;21025;-80
2022/08/28 05:31:19;;;;;;;42.75;31.02;;;;;;;20.66;96.45;100207.92;1773297;79;20975;-80
2022/08/28 05:33:48;;;;;;;43.68;30.82;;;;;;;20.65;96.29;100212.41;1768409;79;21532;-80
2022/08/28 05:36:18;;;;;;;42.93;30.80;;;;;;;20.64;96.39;100209.86;1770156;80;21608;-80
2022/08/28 05:38:45;;;;;;;44.98;31.93;;;;;;;20.66;96.42;100214.59;1776078;80;21405;-80
2022/08/28 05:41:19;;;;;;;41.68;30.68;;;;;;;20.66;96.53;100214.59;1745249;80;21249;-80
2022/08/28 05:43:47;;;;;;;41.95;30.65;;;;;;;20.65;96.52;100217.73;1752139;80;21521;-80
2022/08/28 05:46:16;;;;;;;40.90;30.50;;;;;;;20.67;96.59;100217.59;1772344;80;21007;-80
2022/08/28 05:48:44;;;;;;;42.27;30.97;;;;;;;20.66;96.53;100213.25;1737319;80;20975;-80
2022/08/28 05:51:17;;;;;;;39.73;28.77;;;;;;;20.67;96.64;100212.27;1706081;83;21074;-80
2022/08/28 05:53:46;;;;;;;39.13;29.87;;;;;;;20.67;96.65;100207.81;1747979;80;21932;-80
2022/08/28 05:56:17;;;;;;;37.95;29.20;;;;;;;20.69;96.73;100204.52;1776158;80;21026;-80
2022/08/28 05:58:45;;;;;;;40.50;30.77;;;;;;;20.72;96.87;100209.59;1745570;80;21039;-80
2022/08/28 06:01:30;;;;;;;38.10;28.62;;;;;;;20.75;96.81;100199.66;1751840;80;20996;-80
2022/08/28 06:04:02;;;;;;;44.00;30.80;;;;;;;20.76;96.70;100206.66;1763834;79;21020;-80
2022/08/28 06:06:37;;;;;;;40.43;30.60;;;;;;;20.77;96.59;100211.04;1706146;83;21054;-80
2022/08/28 06:09:12;;;;;;;41.42;30.32;;;;;;;20.72;96.28;100216.73;1742855;82;21052;-80
2022/08/28 06:11:41;;;;;;;42.90;29.15;;;;;;;20.72;96.43;100214.08;1767716;79;21489;-80
2022/08/28 06:14:10;;;;;;;44.90;31.53;;;;;;;20.71;96.57;100207.91;1766401;80;22264;-80
2022/08/28 06:16:42;;;;;;;42.05;30.50;;;;;;;20.72;96.66;100212.25;1751103;80;21502;-80
2022/08/28 06:19:10;;;;;;;45.28;32.33;;;;;;;20.72;96.59;100212.25;1709379;83;21088;-80
2022/08/28 06:21:42;;;;;;;43.80;31.53;;;;;;;20.72;96.51;100208.75;1731180;82;20961;-80
2022/08/28 06:24:12;;;;;;;46.18;31.65;;;;;;;20.73;96.64;100210.45;1767284;80;21020;-80
2022/08/28 06:26:40;;;;;;;41.23;30.68;;;;;;;20.74;96.63;100212.14;1755200;80;21136;-80
2022/08/28 06:29:11;;;;;;;47.85;31.93;;;;;;;20.74;96.69;100205.48;1698734;82;21043;-80
2022/08/28 06:31:39;;;;;;;40.58;30.35;;;;;;;20.76;96.61;100209.33;1738738;82;21130;-80
2022/08/28 06:34:08;;;;;;;45.28;31.87;;;;;;;20.75;96.56;100211.16;1743526;79;21020;-80
2022/08/28 06:36:40;;;;;;;;;;;;;;;20.76;96.56;100213.33;1765670;80;20996;-80
2022/08/28 06:39:10;;;;;;;46.28;29.75;;;;;;;20.77;96.77;100212.38;1774870;80;20227;-80
2022/08/28 06:41:42;;;;;;;48.48;32.05;;;;;;;20.80;96.98;100208.95;1744243;79;21299;-80
2022/08/28 06:44:18;;;;;;;49.20;31.35;;;;;;;20.84;96.75;100214.41;1776200;80;21917;-80
2022/08/28 06:46:51;;;;;;;50.35;32.93;;;;;;;20.85;96.52;100211.25;1748115;80;21528;-80
2022/08/28 06:49:18;;;;;;;45.63;32.73;;;;;;;20.87;96.62;100206.16;1775738;80;21038;-80
2022/08/28 06:51:45;;;;;;;49.13;33.85;;;;;;;20.90;96.51;100211.72;1766526;80;21023;-80
2022/08/28 06:54:16;;;;;;;44.88;33.45;;;;;;;20.91;96.25;100213.40;1743159;79;21023;-81
2022/08/28 06:56:43;;;;;;;;;;;;;;;20.95;96.44;100220.18;1758932;79;21202;-79
2022/08/28 06:59:10;;;;;;;42.80;31.12;;;;;;;20.99;96.44;100216.27;1768838;80;20217;-80
2022/08/28 07:01:40;;;;;;;47.17;34.60;;;;;;;21.01;96.43;100224.99;1764766;80;21043;-80
2022/08/28 07:04:10;;;;;;;43.90;34.98;;;;;;;21.04;96.31;100226.06;1772696;80;21094;-80
2022/08/28 07:06:42;;;;;;;42.17;33.55;;;;;;;21.07;96.12;100230.30;1771872;80;21038;-84
2022/08/28 07:09:10;;;;;;;45.35;34.80;;;;;;;21.06;95.84;100228.13;1768254;80;21288;-80
2022/08/28 07:11:39;;;;;;;48.28;35.98;;;;;;;21.06;95.72;100230.78;1768344;80;20912;-86
2022/08/28 07:14:07;;;;;;;45.20;33.33;;;;;;;21.06;95.59;100226.79;1764481;80;21057;-82
2022/08/28 07:16:37;;;;;;;47.65;36.13;;;;;;;21.08;95.69;100234.64;1765956;80;22435;-81
2022/08/28 07:19:05;;;;;;;;;;;;;;;21.06;95.50;100235.24;1769273;80;21070;-81
2022/08/28 07:21:39;;;;;;;46.40;32.13;;;;;;;21.06;95.66;100240.58;1765111;79;21116;-82
2022/08/28 07:24:11;;;;;;;44.80;33.55;;;;;;;21.04;95.68;100235.88;1766921;80;20900;-84
2022/08/28 07:26:39;;;;;;;45.15;34.95;;;;;;;21.07;95.66;100242.28;1721611;82;21549;-84
2022/08/28 07:29:07;;;;;;;46.00;33.58;;;;;;;21.06;95.49;100242.78;1765076;80;21022;-83
2022/08/28 07:31:34;;;;;;;44.77;33.02;;;;;;;21.08;95.62;100241.30;1768179;80;21030;-85
2022/08/28 07:34:01;;;;;;;47.67;34.10;;;;;;;21.09;95.53;100245.19;1769780;80;22307;-84
2022/08/28 07:36:28;;;;;;;46.35;34.45;;;;;;;21.11;95.52;100244.55;1768082;80;21085;-82
2022/08/28 07:38:57;;;;;;;44.00;32.98;;;;;;;21.13;95.25;100245.77;1767524;80;21026;-83
2022/08/28 07:41:29;;;;;;;46.50;33.95;;;;;;;21.13;95.16;100251.93;1768403;79;21050;-83
2022/08/28 07:46:43;;;;;;;39.50;29.92;;;;;;;21.16;94.93;100254.34;1767881;79;22141;-81
2022/08/28 07:49:11;;;;;;;36.80;29.37;;;;;;;21.19;95.03;100256.39;1767559;79;21038;-83
2022/08/28 07:51:41;;;;;;;35.78;26.35;;;;;;;21.23;94.96;100261.35;1768247;80;21050;-85
2022/08/28 07:54:08;;;;;;;29.95;25.08;;;;;;;21.27;94.78;100255.27;1768010;81;21086;-84
2022/08/28 07:56:39;;;;;;;25.77;23.10;;;;;;;21.28;94.66;100263.12;1767745;79;21044;-88
2022/08/28 07:59:05;;;;;;;26.23;23.22;;;;;;;21.29;94.54;100259.98;1767320;80;22428;-81
2022/08/28 08:01:40;;;;;;;25.97;20.35;;;;;;;21.31;94.39;100264.69;1767944;80;21045;-81
2022/08/28 08:04:11;;;;;;;23.65;19.32;;;;;;;21.30;94.03;100267.00;1768447;79;21046;-83
2022/08/28 08:06:41;;;;;;;22.65;18.77;;;;;;;21.28;94.05;100269.78;1768473;80;21970;-83
2022/08/28 08:09:12;;;;;;;20.92;17.95;;;;;;;21.29;93.87;100274.66;1768434;81;21105;-83
2022/08/28 08:11:39;;;;;;;23.10;18.55;;;;;;;21.31;94.05;100271.34;1768761;81;21100;-82
2022/08/28 08:14:06;;;;;;;20.45;18.35;;;;;;;21.31;93.92;100266.89;1769084;80;21631;-83
2022/08/28 08:16:40;;;;;;;19.65;16.82;;;;;;;21.34;93.97;100271.12;1767972;79;21038;-82
2022/08/28 08:19:09;;;;;;;19.57;17.15;;;;;;;21.38;94.02;100277.90;1768727;79;21062;-83
2022/08/28 08:21:37;;;;;;;24.35;17.50;;;;;;;21.40;93.82;100277.29;1767596;80;21501;-83
2022/08/28 08:24:05;;;;;;;21.62;17.27;;;;;;;21.41;93.59;100278.13;1768060;79;21347;-81
2022/08/28 08:26:33;;;;;;;19.70;16.90;;;;;;;21.42;93.65;100279.81;1768581;81;20962;-83
2022/08/28 08:29:00;;;;;;;21.07;15.68;;;;;;;21.44;93.51;100279.20;1768959;79;21038;-82
2022/08/28 08:31:32;;;;;;;18.70;15.75;;;;;;;21.48;93.48;100283.31;1768629;81;21548;-83
2022/08/28 08:34:02;;;;;;;17.82;14.53;;;;;;;21.48;93.17;100284.16;1769053;81;21062;-85
2022/08/28 08:36:32;;;;;;;17.02;14.45;;;;;;;21.48;93.04;100286.83;1768744;80;22077;-82
2022/08/28 08:39:00;;;;;;;15.98;14.28;;;;;;;21.51;92.88;100284.39;1766878;80;21022;-85
2022/08/28 08:41:36;;;;;;;15.80;14.20;;;;;;;21.52;92.92;100276.73;1766092;80;21094;-86
2022/08/28 08:44:12;;;;;;;15.32;13.68;;;;;;;21.54;92.82;100288.97;1762409;80;20974;-86
2022/08/28 08:46:59;;;;;;;19.00;14.28;;;;;;;21.57;92.79;100291.86;1765493;80;21483;-85
2022/08/28 08:49:31;;;;;;;14.98;13.40;;;;;;;21.57;92.47;100296.70;1736820;80;21139;-84
2022/08/28 08:52:18;;;;;;;14.33;12.70;;;;;;;21.56;92.41;100299.02;1766413;79;21034;-84
2022/08/28 08:55:06;;;;;;;14.85;12.47;;;;;;;21.55;92.25;100305.31;1766289;79;21110;-83
2022/08/28 08:57:36;;;;;;;15.20;11.75;;;;;;;21.50;91.96;100297.34;1763254;79;21062;-85
2022/08/28 09:00:07;;;;;;;14.23;11.33;;;;;;;21.44;91.77;100301.37;1765391;80;21065;-86
2022/08/28 09:02:39;;;;;;;12.20;10.55;;;;;;;21.41;92.02;100303.45;1765629;80;21292;-86
2022/08/28 09:05:11;;;;;;;15.65;11.22;;;;;;;21.39;92.30;100306.23;1765953;80;21062;-87
2022/08/28 09:07:58;;;;;;;13.62;11.38;;;;;;;21.37;92.43;100304.21;1768818;80;21097;-85
2022/08/28 09:10:36;;;;;;;12.13;9.95;;;;;;;21.35;92.57;100314.13;1767501;80;21025;-84
2022/08/28 09:13:24;;;;;;;13.00;9.78;;;;;;;21.31;92.61;100312.20;1768193;80;21047;-91
2022/08/28 09:15:51;;;;;;;15.65;9.10;;;;;;;21.30;92.71;100309.66;1768271;80;21952;-83
2022/08/28 09:18:26;;;;;;;9.88;8.88;;;;;;;21.31;93.03;100311.33;1768230;80;21063;-85
2022/08/28 09:20:58;;;;;;;13.03;8.48;;;;;;;21.31;93.03;100310.88;1767906;80;21528;-92
2022/08/28 09:23:27;;;;;;;11.18;8.38;;;;;;;21.33;93.19;100313.39;1768120;80;21034;-91
2022/08/28 09:26:00;;;;;;;9.85;7.47;;;;;;;21.36;93.30;100317.97;1765892;80;21057;-82
2022/08/28 09:28:35;;;;;;;7.85;7.10;;;;;;;21.41;93.30;100314.13;1766275;80;21066;-85
2022/08/28 09:31:14;;;;;;;8.25;7.45;;;;;;;21.43;93.33;100317.02;1764644;80;21069;-82
2022/08/28 09:33:50;;;;;;;7.65;6.85;;;;;;;21.44;93.05;100324.03;1762083;80;21508;-84
2022/08/28 09:36:30;;;;;;;8.30;6.85;;;;;;;21.43;92.90;100326.36;1766411;80;21053;-81
2022/08/28 09:39:15;;;;;;;7.80;7.00;;;;;;;21.43;93.06;100329.02;1764734;79;21050;-85
2022/08/28 09:45:19;;;;;;;7.28;6.53;;;;;;;21.37;92.79;100322.38;1760986;80;20952;-82
2022/08/28 09:47:50;;;;;;;7.47;6.78;;;;;;;21.37;92.87;100321.05;1760918;81;21043;-81
2022/08/28 09:50:41;;;;;;;7.92;7.12;;;;;;;21.35;92.92;100326.95;1759950;81;21054;-82
2022/08/28 09:53:13;;;;;;;7.45;6.67;;;;;;;21.35;92.92;100334.11;1762225;80;21070;-82
2022/08/28 09:55:54;;;;;;;8.88;7.17;;;;;;;21.27;92.75;100333.41;1761857;80;22082;-83
2022/08/28 09:58:26;;;;;;;9.10;7.25;;;;;;;21.21;92.80;100344.59;1761969;80;21027;-84
2022/08/28 10:00:58;;;;;;;9.55;6.97;;;;;;;21.15;93.24;100339.77;1759887;81;21028;-82
2022/08/28 10:03:30;;;;;;;8.78;7.28;;;;;;;21.09;93.60;100335.79;1760143;80;21098;-85
2022/08/28 10:06:12;;;;;;;8.90;6.60;;;;;;;21.04;93.66;100336.65;1759404;81;21046;-78
2022/08/28 10:08:59;;;;;;;10.10;7.55;;;;;;;20.99;93.91;100340.17;1760777;80;22219;-84
2022/08/28 10:11:53;;;;;;;5.95;4.80;;;;;;;20.94;94.44;100337.03;1762424;80;21042;-83
2022/08/28 10:14:45;;;;;;;7.10;4.78;;;;;;;20.88;94.47;100341.04;1761943;80;21282;-78
2022/08/28 10:18:08;;;;;;;6.20;4.22;;;;;;;20.81;94.51;100337.66;1762964;80;21066;-81
2022/08/28 10:20:49;;;;;;;6.65;4.55;;;;;;;20.71;94.61;100341.08;1763167;81;21050;-80
2022/08/28 10:23:46;;;;;;;9.83;4.80;;;;;;;20.57;95.35;100338.67;1745257;80;21532;-80
2022/08/28 10:26:24;;;;;;;8.15;5.10;;;;;;;20.50;95.80;100341.42;1759180;80;21062;-78
2022/08/28 10:29:06;;;;;;;8.75;4.78;;;;;;;20.46;96.36;100349.30;1759993;81;21046;-82
2022/08/28 10:31:56;;;;;;;6.12;4.62;;;;;;;20.43;96.75;100354.88;1763216;81;21492;-78
2022/08/28 10:34:32;;;;;;;7.45;4.25;;;;;;;20.38;96.84;100349.06;1760279;81;21066;-82
2022/08/28 10:37:13;;;;;;;6.17;4.55;;;;;;;20.35;97.36;100348.81;1759650;80;21078;-82
2022/08/28 10:39:58;;;;;;;5.58;4.00;;;;;;;20.36;97.52;100349.66;1763582;79;21052;-80
2022/08/28 10:42:33;;;;;;;8.53;4.47;;;;;;;20.37;97.90;100352.67;1763213;81;21070;-79
2022/08/28 10:45:16;;;;;;;8.68;5.45;;;;;;;20.36;98.04;100350.98;1763856;79;21314;-79
2022/08/28 10:47:48;;;;;;;4.55;4.15;;;;;;;20.31;97.82;100351.83;1760085;81;21715;-79
2022/08/28 10:50:45;;;;;;;10.18;4.83;;;;;;;20.28;98.18;100348.47;1763343;81;21131;-78
2022/08/28 10:53:23;;;;;;;5.87;4.78;;;;;;;20.28;98.57;100354.24;1763810;79;21035;-78
2022/08/28 10:56:05;;;;;;;4.67;4.28;;;;;;;20.26;98.59;100353.05;1763573;79;21262;-81
2022/08/28 10:58:35;;;;;;;5.45;4.75;;;;;;;20.25;98.90;100349.16;1763879;79;21062;-85
2022/08/28 11:01:11;;;;;;;6.40;4.78;;;;;;;20.29;99.21;100351.97;1727059;81;21059;-77
2022/08/28 11:03:46;;;;;;;5.40;4.83;;;;;;;20.33;99.47;100349.41;1763514;81;21133;-84
2022/08/28 11:06:27;;;;;;;5.95;4.58;;;;;;;20.40;99.73;100353.79;1763361;79;21547;-78
2022/08/28 11:08:58;;;;;;;6.33;5.25;;;;;;;20.45;100.00;100352.45;1763550;81;21616;-79
2022/08/28 11:11:45;;;;;;;5.75;5.08;;;;;;;20.50;100.00;100354.73;1763297;79;21065;-78
2022/08/28 11:14:29;;;;;;;6.55;5.95;;;;;;;20.50;99.73;100356.91;1737090;81;21559;-78
2022/08/28 11:17:01;;;;;;;7.50;5.15;;;;;;;20.52;100.00;100356.80;1765134;81;21146;-83
2022/08/28 11:19:54;;;;;;;5.90;5.25;;;;;;;20.52;100.00;100356.80;1765276;81;21542;-85
2022/08/28 11:22:28;;;;;;;5.78;5.28;;;;;;;20.50;99.89;100361.39;1763670;79;21033;-87
2022/08/28 11:25:30;;;;;;;5.78;5.15;;;;;;;20.50;100.00;100362.72;1743355;81;21031;-80
2022/08/28 11:28:37;;;;;;;7.08;5.08;;;;;;;20.49;99.82;100359.70;1764323;81;21026;-81
2022/08/28 11:31:10;;;;;;;5.90;5.40;;;;;;;20.50;99.94;100366.71;1765659;79;21909;-78
2022/08/28 11:33:51;;;;;;;5.95;5.28;;;;;;;20.45;99.92;100367.55;1764371;81;21020;-96
2022/08/28 11:36:28;;;;;;;5.78;5.05;;;;;;;20.44;99.76;100374.70;1765968;80;21304;-86
2022/08/28 11:39:16;;;;;;;7.00;6.30;;;;;;;20.41;99.71;100371.44;1765860;79;21008;-85
2022/08/28 11:42:31;;;;;;;6.55;5.87;;;;;;;20.40;100.00;100369.77;1752277;80;21034;-86
2022/08/28 11:44:59;;;;;;;6.05;5.53;;;;;;;20.39;100.00;100373.37;1764076;80;21121;-82